Time;durP1;ratioP1;P1;durP2;ratioP2;P2;SDS_P1;SDS_P2;PMS_P1;PMS_P2;Temp;Humidity;BMP_temperature;BMP_pressure;BME280_temperature;BME280_humidity;BME280_pressure;Samples;Min_cycle;Max_cycle;Signal;HPM_P1;HPM_P2
2021/01/31 00:00:30;;;;;;;8.43;4.20;;;-1.00;99.90;;;;;;5040757;28;20044;-73
2021/01/31 00:02:55;;;;;;;8.25;4.00;;;-1.00;99.90;;;;;;5051121;28;20039;-73
2021/01/31 00:05:23;;;;;;;8.02;4.38;;;-1.00;99.90;;;;;;5050915;28;20459;-73
2021/01/31 00:07:49;;;;;;;8.23;4.60;;;-1.00;99.90;;;;;;5036702;28;20057;-73
2021/01/31 00:10:17;;;;;;;7.45;4.45;;;-1.10;99.90;;;;;;5042790;28;20504;-73
2021/01/31 00:12:43;;;;;;;7.03;3.80;;;-1.10;99.90;;;;;;5034233;28;20437;-74
2021/01/31 00:15:12;;;;;;;9.50;4.30;;;-1.10;99.90;;;;;;5029600;28;20029;-73
2021/01/31 00:17:38;;;;;;;7.25;4.32;;;-1.10;99.90;;;;;;5035330;28;20036;-73
2021/01/31 00:20:04;;;;;;;8.27;4.68;;;-1.10;99.90;;;;;;5032512;28;20033;-73
2021/01/31 00:22:30;;;;;;;9.57;4.60;;;-1.10;99.90;;;;;;5050699;28;20113;-73
2021/01/31 00:24:56;;;;;;;8.07;4.60;;;-1.00;99.90;;;;;;5032760;28;20119;-73
2021/01/31 00:27:23;;;;;;;7.95;4.35;;;-1.00;99.90;;;;;;5049693;28;20025;-73
2021/01/31 00:29:50;;;;;;;7.38;4.47;;;-1.10;99.90;;;;;;5050532;28;20689;-73
2021/01/31 00:32:21;;;;;;;10.77;5.05;;;-1.10;99.90;;;;;;5050568;28;20064;-74
2021/01/31 00:34:47;;;;;;;7.70;4.05;;;-1.10;99.90;;;;;;5050402;28;20032;-74
2021/01/31 00:37:15;;;;;;;10.18;4.95;;;-1.10;99.90;;;;;;5049477;28;20393;-73
2021/01/31 00:39:41;;;;;;;8.98;4.32;;;-1.10;99.90;;;;;;5050117;28;20118;-73
2021/01/31 00:42:06;;;;;;;7.57;4.43;;;-1.10;99.90;;;;;;5050357;28;20056;-73
2021/01/31 00:44:32;;;;;;;8.48;4.60;;;-1.10;99.90;;;;;;5032591;28;20120;-73
2021/01/31 00:46:58;;;;;;;7.72;4.22;;;-1.10;99.90;;;;;;5049417;28;20031;-73
2021/01/31 00:49:23;;;;;;;8.77;4.60;;;-1.10;99.90;;;;;;5032472;28;20021;-73
2021/01/31 00:51:49;;;;;;;8.95;3.97;;;-1.10;99.90;;;;;;5034413;28;20033;-74
2021/01/31 00:54:16;;;;;;;8.57;4.15;;;-1.10;99.90;;;;;;5020627;28;20025;-74
2021/01/31 00:56:42;;;;;;;7.55;4.50;;;-1.10;99.90;;;;;;5006619;28;20040;-73
2021/01/31 00:59:08;;;;;;;11.85;5.20;;;-1.10;99.90;;;;;;5026055;28;20491;-73
2021/01/31 01:01:33;;;;;;;7.90;4.45;;;-1.10;99.90;;;;;;5025808;28;20390;-73
2021/01/31 01:04:00;;;;;;;6.68;4.32;;;-1.10;99.90;;;;;;5024660;28;20048;-74
2021/01/31 01:06:40;;;;;;;9.40;5.25;;;-1.20;99.90;;;;;;5011728;28;20022;-73
2021/01/31 01:09:05;;;;;;;8.30;4.22;;;-1.20;99.90;;;;;;5024549;28;20093;-74
2021/01/31 01:11:31;;;;;;;9.15;4.15;;;-1.30;99.90;;;;;;4997304;28;20076;-74
2021/01/31 01:13:57;;;;;;;7.43;4.68;;;-1.30;99.90;;;;;;5039423;28;20037;-74
2021/01/31 01:16:22;;;;;;;9.48;4.50;;;-1.30;99.90;;;;;;5049231;28;20067;-73
2021/01/31 01:18:48;;;;;;;8.75;4.10;;;-1.20;99.90;;;;;;5012169;28;20456;-73
2021/01/31 01:21:15;;;;;;;7.05;4.00;;;-1.30;99.90;;;;;;4996289;28;20033;-73
2021/01/31 01:23:42;;;;;;;7.68;4.30;;;-1.30;99.90;;;;;;5030096;28;20109;-74
2021/01/31 01:26:08;;;;;;;7.45;4.13;;;-1.30;99.90;;;;;;5030592;28;20118;-74
2021/01/31 01:28:34;;;;;;;7.88;4.43;;;-1.40;99.90;;;;;;5033486;28;20520;-73
2021/01/31 01:31:00;;;;;;;7.97;4.57;;;-1.40;99.90;;;;;;5034057;28;20080;-74
2021/01/31 01:33:26;;;;;;;9.27;4.18;;;-1.50;99.90;;;;;;5016188;28;20067;-74
2021/01/31 01:35:52;;;;;;;8.68;4.38;;;-1.40;99.90;;;;;;5033927;28;20021;-74
2021/01/31 01:38:18;;;;;;;8.50;4.65;;;-1.40;99.90;;;;;;5035109;28;20030;-73
2021/01/31 01:40:43;;;;;;;8.55;4.78;;;-1.40;99.90;;;;;;5036578;28;20025;-74
2021/01/31 01:43:16;;;;;;;7.82;4.25;;;-1.40;99.90;;;;;;5033413;28;20032;-73
2021/01/31 01:45:41;;;;;;;10.55;4.50;;;-1.50;99.90;;;;;;5015925;28;20433;-74
2021/01/31 01:48:17;;;;;;;9.18;5.13;;;-1.50;99.90;;;;;;5032615;28;20033;-74
2021/01/31 01:50:49;;;;;;;10.82;4.35;;;-1.50;99.90;;;;;;5016733;28;20048;-73
2021/01/31 01:53:18;;;;;;;8.60;4.57;;;-1.50;99.90;;;;;;5015761;28;20525;-73
2021/01/31 01:56:00;;;;;;;11.95;4.60;;;-1.50;99.90;;;;;;5033194;28;20401;-73
2021/01/31 01:58:27;;;;;;;9.07;4.65;;;-1.60;99.90;;;;;;5030633;28;20041;-73
2021/01/31 02:00:53;;;;;;;9.05;4.20;;;-1.60;99.90;;;;;;5041238;28;20375;-74
2021/01/31 02:03:30;;;;;;;10.02;4.38;;;-1.70;99.90;;;;;;5049746;28;20148;-73
2021/01/31 02:06:01;;;;;;;10.20;5.30;;;-1.70;99.90;;;;;;5051976;28;20025;-74
2021/01/31 02:08:27;;;;;;;10.88;5.15;;;-1.80;99.90;;;;;;5051408;28;20083;-74
2021/01/31 02:10:53;;;;;;;9.85;5.10;;;-1.90;99.90;;;;;;5035523;28;20441;-74
2021/01/31 02:13:19;;;;;;;9.45;4.60;;;-1.90;99.90;;;;;;5043927;28;20040;-73
2021/01/31 02:15:46;;;;;;;9.75;4.68;;;-1.90;99.90;;;;;;5032948;28;20036;-74
2021/01/31 02:18:37;;;;;;;12.57;5.45;;;-1.80;99.90;;;;;;5013989;28;20040;-74
2021/01/31 02:21:26;;;;;;;9.35;4.70;;;-1.90;99.90;;;;;;5015279;28;20034;-74
2021/01/31 02:24:14;;;;;;;10.45;5.60;;;-2.00;99.90;;;;;;5032774;28;20055;-74
2021/01/31 02:27:17;;;;;;;10.18;5.25;;;-2.00;99.90;;;;;;5031986;28;20030;-74
2021/01/31 02:30:04;;;;;;;9.20;4.70;;;-2.00;99.90;;;;;;5032876;28;20029;-74
2021/01/31 02:33:24;;;;;;;11.23;4.88;;;-2.00;99.90;;;;;;5032836;28;20025;-74
2021/01/31 02:35:56;;;;;;;11.30;4.55;;;-2.00;99.90;;;;;;5032701;28;20455;-74
2021/01/31 02:38:42;;;;;;;9.02;4.90;;;-2.00;99.90;;;;;;5030415;28;20034;-74
2021/01/31 02:41:27;;;;;;;11.32;5.75;;;-2.00;99.90;;;;;;5014839;28;20048;-74
2021/01/31 02:43:55;;;;;;;9.88;5.07;;;-2.00;99.90;;;;;;5032688;28;20102;-73
2021/01/31 02:46:42;;;;;;;9.00;5.20;;;-2.00;99.90;;;;;;5031594;28;20739;-74
2021/01/31 02:49:20;;;;;;;9.60;4.75;;;-1.90;99.90;;;;;;5032506;28;20034;-74
2021/01/31 02:52:16;;;;;;;9.25;5.32;;;-2.00;99.90;;;;;;5032461;28;20113;-74
2021/01/31 02:55:14;;;;;;;8.77;5.10;;;-2.00;99.90;;;;;;5029936;28;20389;-73
2021/01/31 02:58:11;;;;;;;11.18;5.55;;;-1.90;99.90;;;;;;5031110;28;20044;-74
2021/01/31 03:00:59;;;;;;;8.82;4.63;;;-1.90;99.90;;;;;;5032252;28;20053;-74
2021/01/31 03:03:31;;;;;;;11.40;5.03;;;-1.90;99.90;;;;;;5032305;28;20022;-74
2021/01/31 03:06:00;;;;;;;12.52;4.50;;;-1.90;99.90;;;;;;5032110;28;20527;-74
2021/01/31 03:08:32;;;;;;;9.75;4.85;;;-1.90;99.90;;;;;;4997067;28;20045;-74
2021/01/31 03:11:06;;;;;;;9.85;4.85;;;-2.00;99.90;;;;;;5031969;28;20022;-74
2021/01/31 03:13:42;;;;;;;9.55;4.93;;;-1.90;99.90;;;;;;5032139;28;20029;-74
2021/01/31 03:16:23;;;;;;;8.88;4.35;;;-1.90;99.90;;;;;;5031478;28;20074;-74
2021/01/31 03:19:12;;;;;;;6.57;4.15;;;-1.90;99.90;;;;;;5022174;28;20041;-74
2021/01/31 03:21:40;;;;;;;10.23;4.53;;;-1.90;99.90;;;;;;5031812;28;20370;-74
2021/01/31 03:24:33;;;;;;;9.02;4.43;;;-1.90;99.90;;;;;;5031641;28;20084;-74
2021/01/31 03:27:29;;;;;;;8.32;4.35;;;-1.90;99.90;;;;;;5019938;28;20037;-74
2021/01/31 03:29:55;;;;;;;9.85;4.65;;;-1.90;99.90;;;;;;5031713;28;20091;-74
2021/01/31 03:32:29;;;;;;;9.82;5.18;;;-1.90;99.90;;;;;;5031763;28;20033;-74
2021/01/31 03:35:06;;;;;;;8.10;4.63;;;-1.90;99.90;;;;;;5013831;28;20478;-74
2021/01/31 03:37:41;;;;;;;9.70;5.00;;;-1.90;99.90;;;;;;5030653;28;20052;-74
2021/01/31 03:40:08;;;;;;;11.00;5.00;;;-1.90;99.90;;;;;;5031175;28;20038;-74
2021/01/31 03:42:35;;;;;;;8.43;4.47;;;-1.90;99.90;;;;;;5031627;28;20057;-74
2021/01/31 03:45:06;;;;;;;11.38;5.43;;;-2.00;99.90;;;;;;5013743;28;20447;-74
2021/01/31 03:47:44;;;;;;;8.20;4.70;;;-2.00;99.90;;;;;;5013292;28;20120;-74
2021/01/31 03:50:10;;;;;;;10.98;4.80;;;-2.00;99.90;;;;;;5031024;28;20037;-74
2021/01/31 03:52:37;;;;;;;9.93;5.18;;;-2.00;99.90;;;;;;5031311;28;20048;-74
2021/01/31 03:55:03;;;;;;;10.07;5.18;;;-2.00;99.90;;;;;;5030352;28;20545;-74
2021/01/31 03:57:38;;;;;;;10.13;5.03;;;-2.00;99.90;;;;;;4984589;28;20037;-74
2021/01/31 04:00:33;;;;;;;10.20;4.78;;;-2.10;99.90;;;;;;5013079;28;20056;-74
2021/01/31 04:03:18;;;;;;;8.75;4.75;;;-2.10;99.90;;;;;;5002683;28;20033;-74
2021/01/31 04:06:11;;;;;;;9.60;4.70;;;-2.10;99.90;;;;;;5011360;28;20105;-74
2021/01/31 04:08:38;;;;;;;7.80;4.32;;;-2.10;99.90;;;;;;5030124;28;20108;-74
2021/01/31 04:11:04;;;;;;;10.15;5.35;;;-2.20;99.90;;;;;;5030782;28;20033;-74
2021/01/31 04:13:33;;;;;;;11.15;5.18;;;-2.20;99.90;;;;;;5030903;28;20078;-73
2021/01/31 04:16:01;;;;;;;10.88;4.40;;;-2.20;99.90;;;;;;5018013;28;20086;-74
2021/01/31 04:18:26;;;;;;;10.38;5.03;;;-2.20;99.90;;;;;;5029408;28;20041;-74
2021/01/31 04:20:53;;;;;;;8.85;4.78;;;-2.30;99.90;;;;;;5029982;28;20037;-74
2021/01/31 04:23:20;;;;;;;9.95;5.22;;;-2.30;99.90;;;;;;5030539;28;20076;-74
2021/01/31 04:25:47;;;;;;;11.13;4.93;;;-2.30;99.90;;;;;;5030710;28;20493;-74
2021/01/31 04:28:24;;;;;;;9.27;5.03;;;-2.40;99.90;;;;;;5029363;28;20037;-73
2021/01/31 04:30:56;;;;;;;8.32;4.88;;;-2.40;99.90;;;;;;5030655;28;20033;-73
2021/01/31 04:33:24;;;;;;;12.23;5.45;;;-2.50;99.90;;;;;;5012665;28;20112;-74
2021/01/31 04:35:51;;;;;;;12.18;5.25;;;-2.50;99.90;;;;;;5030485;28;20029;-74
2021/01/31 04:38:17;;;;;;;11.27;5.40;;;-2.50;99.90;;;;;;5029301;28;20026;-74
2021/01/31 04:40:43;;;;;;;9.70;4.65;;;-2.60;99.90;;;;;;5030363;28;20130;-74
2021/01/31 04:43:13;;;;;;;7.47;4.07;;;-2.70;99.90;;;;;;5030441;28;20645;-74
2021/01/31 04:45:40;;;;;;;9.10;4.63;;;-2.80;99.90;;;;;;5030437;28;20564;-74
2021/01/31 04:48:43;;;;;;;9.57;4.97;;;-2.80;99.90;;;;;;5029069;28;20486;-74
2021/01/31 04:51:11;;;;;;;9.73;4.80;;;-2.80;99.90;;;;;;5030455;28;20025;-74
2021/01/31 04:54:08;;;;;;;8.10;4.20;;;-2.90;99.90;;;;;;5030375;28;20021;-74
2021/01/31 04:56:47;;;;;;;9.50;4.72;;;-2.90;99.90;;;;;;5029145;28;20033;-74
2021/01/31 04:59:35;;;;;;;8.05;4.05;;;-2.80;99.90;;;;;;5030286;28;20026;-74
2021/01/31 05:02:11;;;;;;;8.98;3.65;;;-2.90;99.90;;;;;;5014782;28;20033;-73
2021/01/31 05:04:58;;;;;;;9.52;4.22;;;-2.90;99.90;;;;;;5016480;28;20028;-74
2021/01/31 05:07:33;;;;;;;14.77;5.18;;;-2.90;99.90;;;;;;5033184;28;20022;-74
2021/01/31 05:09:59;;;;;;;9.27;4.38;;;-2.90;99.90;;;;;;5033735;28;20029;-74
2021/01/31 05:12:37;;;;;;;10.43;4.47;;;-2.80;99.90;;;;;;5019600;28;20040;-74
2021/01/31 05:15:24;;;;;;;7.53;4.32;;;-2.90;99.90;;;;;;5016382;28;20120;-74
2021/01/31 05:17:53;;;;;;;6.32;4.03;;;-2.90;99.90;;;;;;5032779;28;20367;-73
2021/01/31 05:20:23;;;;;;;11.38;4.65;;;-2.90;99.90;;;;;;5016202;28;20601;-73
2021/01/31 05:22:53;;;;;;;9.32;4.82;;;-2.90;99.90;;;;;;5033894;28;20029;-74
2021/01/31 05:25:22;;;;;;;10.77;4.95;;;-2.90;99.90;;;;;;5033449;28;20018;-74
2021/01/31 05:27:53;;;;;;;6.88;3.88;;;-2.90;99.90;;;;;;5015041;28;20428;-74
2021/01/31 05:30:19;;;;;;;10.50;4.25;;;-2.90;99.90;;;;;;5016174;28;20047;-74
2021/01/31 05:33:02;;;;;;;8.82;4.22;;;-3.00;99.90;;;;;;5016069;28;20104;-74
2021/01/31 05:35:30;;;;;;;6.65;3.80;;;-3.00;99.90;;;;;;5033716;28;20563;-74
2021/01/31 05:37:56;;;;;;;9.05;4.22;;;-3.00;99.90;;;;;;5032245;28;20033;-74
2021/01/31 05:40:42;;;;;;;8.27;4.40;;;-3.10;99.90;;;;;;5015895;28;20034;-74
2021/01/31 05:43:21;;;;;;;6.95;3.58;;;-3.10;99.90;;;;;;5033777;28;20025;-74
2021/01/31 05:45:47;;;;;;;9.63;4.95;;;-3.10;99.90;;;;;;5034138;28;20618;-74
2021/01/31 05:48:35;;;;;;;8.20;4.07;;;-3.10;99.90;;;;;;5032241;28;20033;-74
2021/01/31 05:51:15;;;;;;;11.63;4.55;;;-3.10;99.90;;;;;;5033493;28;20021;-74
2021/01/31 05:53:42;;;;;;;8.13;4.07;;;-3.10;99.90;;;;;;5033449;28;20022;-74
2021/01/31 05:56:25;;;;;;;12.57;4.88;;;-3.10;99.90;;;;;;5011600;28;20072;-75
2021/01/31 05:59:00;;;;;;;10.85;5.20;;;-3.20;99.90;;;;;;5031079;28;20032;-73
2021/01/31 06:01:26;;;;;;;8.98;4.25;;;-3.20;99.90;;;;;;5033084;28;20032;-74
2021/01/31 06:04:13;;;;;;;12.15;4.47;;;-3.20;99.90;;;;;;5033062;28;20026;-74
2021/01/31 06:06:41;;;;;;;7.72;3.97;;;-3.30;99.90;;;;;;5014308;28;20068;-74
2021/01/31 06:09:38;;;;;;;7.03;3.88;;;-3.30;99.90;;;;;;5032900;28;20043;-74
2021/01/31 06:12:21;;;;;;;9.63;4.53;;;-3.40;99.90;;;;;;5031182;28;20099;-74
2021/01/31 06:14:58;;;;;;;7.20;3.80;;;-3.50;99.90;;;;;;5033221;28;20037;-74
2021/01/31 06:17:28;;;;;;;6.97;3.92;;;-3.50;99.90;;;;;;5031766;28;20037;-74
2021/01/31 06:20:26;;;;;;;8.18;4.50;;;-3.50;99.90;;;;;;5032328;28;20104;-74
2021/01/31 06:22:52;;;;;;;9.93;4.55;;;-3.40;99.90;;;;;;5023126;28;20041;-74
2021/01/31 06:25:27;;;;;;;8.88;3.97;;;-3.50;99.90;;;;;;5014989;28;20567;-73
2021/01/31 06:28:11;;;;;;;7.95;4.22;;;-3.50;99.90;;;;;;5013744;28;20022;-74
2021/01/31 06:31:03;;;;;;;10.32;4.82;;;-3.50;99.90;;;;;;5015185;28;20033;-74
2021/01/31 06:33:29;;;;;;;11.63;5.00;;;-3.50;99.90;;;;;;5015118;28;20029;-74
2021/01/31 06:36:18;;;;;;;9.43;4.78;;;-3.60;99.90;;;;;;5032456;28;20531;-73
2021/01/31 06:38:58;;;;;;;8.60;4.45;;;-3.60;99.90;;;;;;5022761;28;20022;-73
2021/01/31 06:41:30;;;;;;;9.57;4.53;;;-3.60;99.90;;;;;;5030126;28;20053;-74
2021/01/31 06:44:08;;;;;;;10.73;4.60;;;-3.60;99.90;;;;;;5014348;28;20647;-73
2021/01/31 06:47:04;;;;;;;9.30;4.45;;;-3.60;99.90;;;;;;5031218;28;20036;-73
2021/01/31 06:49:50;;;;;;;10.55;4.13;;;-3.70;99.90;;;;;;5030324;28;20033;-73
2021/01/31 06:52:54;;;;;;;8.45;3.85;;;-3.70;99.90;;;;;;5032089;28;20044;-73
2021/01/31 06:55:38;;;;;;;8.38;3.85;;;-3.70;99.90;;;;;;5026038;28;20562;-74
2021/01/31 06:58:14;;;;;;;8.05;3.65;;;-3.80;99.90;;;;;;5031090;28;20474;-74
2021/01/31 07:00:43;;;;;;;7.03;3.45;;;-3.70;99.90;;;;;;5027302;28;20482;-73
2021/01/31 07:03:17;;;;;;;10.35;4.45;;;-3.70;99.90;;;;;;5007234;28;20026;-73
2021/01/31 07:06:11;;;;;;;9.13;4.57;;;-3.70;99.90;;;;;;5032265;28;20033;-73
2021/01/31 07:08:48;;;;;;;6.82;3.30;;;-3.70;99.90;;;;;;5031689;28;20389;-73
2021/01/31 07:11:36;;;;;;;8.70;3.97;;;-3.70;99.90;;;;;;5031782;28;20108;-73
2021/01/31 07:14:09;;;;;;;7.35;3.45;;;-3.60;99.90;;;;;;5024739;28;20033;-73
2021/01/31 07:17:04;;;;;;;7.45;4.05;;;-3.60;99.90;;;;;;5029361;28;20025;-74
2021/01/31 07:19:38;;;;;;;7.07;3.53;;;-3.60;99.90;;;;;;5030537;28;20052;-73
2021/01/31 07:22:13;;;;;;;8.93;4.20;;;-3.60;99.90;;;;;;5031853;28;20021;-73
2021/01/31 07:25:12;;;;;;;9.50;4.82;;;-3.50;99.90;;;;;;5031269;28;20608;-73
2021/01/31 07:27:55;;;;;;;8.43;3.70;;;-3.50;99.90;;;;;;4998641;28;20042;-73
2021/01/31 07:30:49;;;;;;;8.60;3.88;;;-3.50;99.90;;;;;;5011785;28;20520;-74
2021/01/31 07:33:21;;;;;;;10.18;4.90;;;-3.50;99.90;;;;;;5011883;28;20034;-73
2021/01/31 07:35:58;;;;;;;8.95;4.45;;;-3.40;99.90;;;;;;4994328;28;20072;-73
2021/01/31 07:38:52;;;;;;;9.02;4.38;;;-3.50;99.90;;;;;;5018168;28;20552;-73
2021/01/31 07:41:18;;;;;;;9.65;4.45;;;-3.40;99.90;;;;;;5051475;28;20087;-73
2021/01/31 07:43:51;;;;;;;9.70;4.35;;;-3.40;99.90;;;;;;5048383;28;20075;-73
2021/01/31 07:46:18;;;;;;;10.75;4.53;;;-3.30;99.90;;;;;;5029874;28;20029;-73
2021/01/31 07:48:44;;;;;;;7.63;4.03;;;-3.30;99.90;;;;;;5030738;28;20022;-74
2021/01/31 07:51:18;;;;;;;11.98;4.57;;;-3.20;99.90;;;;;;5021737;28;20397;-73
2021/01/31 07:53:45;;;;;;;10.15;4.45;;;-3.10;99.90;;;;;;5028291;28;20025;-74
2021/01/31 07:56:36;;;;;;;8.65;4.68;;;-3.10;99.90;;;;;;5030263;28;20378;-73
2021/01/31 07:59:08;;;;;;;13.02;5.07;;;-2.90;99.90;;;;;;5031124;28;20057;-74
2021/01/31 08:01:39;;;;;;;9.80;4.03;;;-2.80;99.90;;;;;;5031102;28;20034;-74
2021/01/31 08:04:17;;;;;;;10.55;4.72;;;-2.60;99.90;;;;;;4993782;28;20031;-73
2021/01/31 08:06:49;;;;;;;8.50;3.97;;;-2.50;99.90;;;;;;5009984;28;20022;-73
2021/01/31 08:09:24;;;;;;;9.98;4.85;;;-2.50;99.90;;;;;;5011268;28;20076;-74
2021/01/31 08:11:53;;;;;;;9.90;4.28;;;-2.40;99.90;;;;;;5006866;28;20034;-73
2021/01/31 08:14:56;;;;;;;8.88;4.47;;;-2.30;99.90;;;;;;5033968;28;20029;-73
2021/01/31 08:17:45;;;;;;;10.25;4.50;;;-2.20;99.90;;;;;;4999276;28;20025;-73
2021/01/31 08:20:16;;;;;;;7.97;4.47;;;-2.10;99.90;;;;;;5031749;28;20037;-73
2021/01/31 08:22:42;;;;;;;9.10;4.60;;;-2.10;99.90;;;;;;5028823;28;20026;-74
2021/01/31 08:25:08;;;;;;;11.15;5.28;;;-2.00;99.90;;;;;;5023272;28;20026;-73
2021/01/31 08:27:37;;;;;;;9.27;4.88;;;-1.90;99.90;;;;;;5007416;28;20018;-73
2021/01/31 08:30:29;;;;;;;10.13;5.15;;;-1.90;99.90;;;;;;5038362;28;20025;-73
2021/01/31 08:32:58;;;;;;;12.60;5.05;;;-1.80;99.90;;;;;;5022894;28;20032;-73
2021/01/31 08:35:26;;;;;;;8.73;4.90;;;-1.70;99.90;;;;;;5038735;28;20055;-73
2021/01/31 08:38:18;;;;;;;10.45;5.15;;;-1.60;99.90;;;;;;5048771;28;20040;-74
2021/01/31 08:41:02;;;;;;;13.85;6.07;;;-1.50;99.90;;;;;;5044921;28;20035;-73
2021/01/31 08:43:41;;;;;;;19.27;8.75;;;-1.40;99.90;;;;;;5045476;28;20040;-73
2021/01/31 08:46:20;;;;;;;14.43;7.00;;;-1.40;99.90;;;;;;5028202;28;20044;-73
2021/01/31 08:49:09;;;;;;;16.98;7.47;;;-1.40;99.90;;;;;;5040513;28;20450;-73
2021/01/31 08:51:38;;;;;;;10.48;5.50;;;-1.50;99.90;;;;;;5048285;28;20621;-73
2021/01/31 08:54:12;;;;;;;16.27;7.38;;;-1.50;99.90;;;;;;5048580;28;20043;-73
2021/01/31 08:56:53;;;;;;;16.63;7.50;;;-1.50;99.90;;;;;;5049037;28;20070;-73
2021/01/31 08:59:20;;;;;;;16.85;8.15;;;-1.50;99.90;;;;;;5010475;28;20061;-73
2021/01/31 09:01:51;;;;;;;17.02;7.30;;;-1.60;99.90;;;;;;5050288;28;20116;-73
2021/01/31 09:04:19;;;;;;;14.30;6.53;;;-1.60;99.90;;;;;;5030017;28;20026;-73
2021/01/31 09:06:48;;;;;;;12.73;6.82;;;-1.50;99.90;;;;;;5028515;28;20079;-73
2021/01/31 09:09:29;;;;;;;12.80;6.47;;;-1.50;99.90;;;;;;5013415;28;20061;-73
2021/01/31 09:11:58;;;;;;;16.60;6.70;;;-1.40;99.90;;;;;;5012242;28;20030;-73
2021/01/31 09:14:28;;;;;;;12.93;6.07;;;-1.40;99.90;;;;;;4994512;28;20034;-73
2021/01/31 09:17:03;;;;;;;12.88;6.25;;;-1.40;99.90;;;;;;5032901;28;20025;-73
2021/01/31 09:19:29;;;;;;;16.35;7.25;;;-1.30;99.90;;;;;;5039837;28;20035;-73
2021/01/31 09:22:06;;;;;;;13.98;6.95;;;-1.40;99.90;;;;;;5034728;28;20032;-73
2021/01/31 09:24:37;;;;;;;13.55;6.65;;;-1.50;99.90;;;;;;5017107;28;20033;-73
2021/01/31 09:27:04;;;;;;;12.90;6.38;;;-1.40;99.90;;;;;;5043154;28;20021;-73
2021/01/31 09:29:32;;;;;;;15.35;7.68;;;-1.40;99.90;;;;;;5022748;28;20021;-73
2021/01/31 09:32:03;;;;;;;15.98;7.07;;;-1.50;99.90;;;;;;5026435;28;20025;-73
2021/01/31 09:34:30;;;;;;;14.70;7.28;;;-1.50;99.90;;;;;;5029770;28;20030;-73
2021/01/31 09:37:19;;;;;;;12.73;6.43;;;-1.50;99.90;;;;;;5020493;28;20041;-73
2021/01/31 09:39:46;;;;;;;12.00;6.03;;;-1.50;99.90;;;;;;5014915;28;20149;-73
2021/01/31 09:42:12;;;;;;;18.40;7.13;;;-1.40;99.90;;;;;;5034497;28;20033;-73
2021/01/31 09:44:43;;;;;;;16.10;7.57;;;-1.40;99.90;;;;;;5005688;28;20508;-74
2021/01/31 09:47:09;;;;;;;12.88;6.03;;;-1.40;99.90;;;;;;5007130;28;20026;-74
2021/01/31 09:49:37;;;;;;;17.45;7.57;;;-1.40;99.90;;;;;;5046035;28;21001;-74
2021/01/31 09:52:09;;;;;;;18.25;7.47;;;-1.30;99.90;;;;;;5027929;28;20458;-73
2021/01/31 09:54:35;;;;;;;13.55;6.68;;;-1.20;99.90;;;;;;5037482;28;20117;-74
2021/01/31 09:57:05;;;;;;;15.23;6.93;;;-1.00;99.90;;;;;;5033731;28;20037;-74
2021/01/31 09:59:34;;;;;;;13.05;6.88;;;-1.00;99.90;;;;;;5018694;28;20025;-74
2021/01/31 10:02:07;;;;;;;13.70;6.15;;;-0.90;99.90;;;;;;5027571;28;20031;-73
2021/01/31 10:04:34;;;;;;;12.57;6.53;;;-0.80;99.90;;;;;;5013025;28;20025;-74
2021/01/31 10:07:12;;;;;;;12.68;6.22;;;-0.80;99.90;;;;;;5003187;28;20405;-74
2021/01/31 10:09:43;;;;;;;13.02;5.97;;;-0.70;99.90;;;;;;5035305;28;20048;-74
2021/01/31 10:12:22;;;;;;;16.25;7.10;;;-0.70;99.90;;;;;;5035239;28;20033;-74
2021/01/31 10:15:03;;;;;;;13.95;5.72;;;-0.70;99.90;;;;;;5029913;28;20068;-74
2021/01/31 10:17:29;;;;;;;11.85;5.85;;;-0.70;99.90;;;;;;5028862;28;20113;-73
2021/01/31 10:20:36;;;;;;;18.05;7.55;;;-0.70;99.90;;;;;;5031565;28;20128;-74
2021/01/31 10:23:13;;;;;;;16.42;8.30;;;-0.70;99.90;;;;;;5032154;28;20454;-74
2021/01/31 10:25:56;;;;;;;16.40;8.05;;;-0.60;99.90;;;;;;5031719;28;20095;-75
2021/01/31 10:28:33;;;;;;;16.38;7.05;;;-0.60;99.90;;;;;;5015081;28;20036;-74
2021/01/31 10:30:59;;;;;;;20.85;8.10;;;-0.60;99.90;;;;;;5032936;28;20447;-75
2021/01/31 10:33:43;;;;;;;17.27;8.23;;;-0.40;99.90;;;;;;5014908;28;20033;-74
2021/01/31 10:36:22;;;;;;;16.95;7.55;;;-0.30;99.90;;;;;;5032272;28;20516;-75
2021/01/31 10:38:48;;;;;;;19.13;8.32;;;-0.20;99.90;;;;;;5032510;28;20068;-75
2021/01/31 10:41:13;;;;;;;14.80;7.35;;;-0.10;99.90;;;;;;5032690;28;20067;-74
2021/01/31 10:43:39;;;;;;;15.02;6.90;;;-0.10;99.90;;;;;;5014787;28;20049;-75
2021/01/31 10:46:05;;;;;;;14.75;6.75;;;0.00;99.90;;;;;;5014645;28;20034;-75
2021/01/31 10:48:31;;;;;;;17.60;7.93;;;0.00;99.90;;;;;;5031454;28;20485;-74
2021/01/31 10:50:56;;;;;;;16.23;6.97;;;0.00;99.90;;;;;;5032654;28;20417;-75
2021/01/31 10:53:22;;;;;;;16.02;6.90;;;0.00;99.90;;;;;;4998376;28;20030;-75
2021/01/31 10:55:49;;;;;;;16.00;7.00;;;0.00;99.90;;;;;;5014280;28;20041;-74
2021/01/31 10:58:14;;;;;;;15.95;7.22;;;0.00;99.90;;;;;;5030756;28;20021;-75
2021/01/31 11:00:41;;;;;;;14.30;7.30;;;-0.10;99.90;;;;;;5014138;28;20508;-75
2021/01/31 11:03:07;;;;;;;16.52;6.38;;;-0.10;99.90;;;;;;5013949;28;20044;-74
2021/01/31 11:05:33;;;;;;;15.00;7.70;;;-0.10;99.90;;;;;;5032101;28;20109;-74
2021/01/31 11:07:58;;;;;;;17.40;6.63;;;-0.20;99.90;;;;;;5013097;28;20033;-74
2021/01/31 11:10:24;;;;;;;12.15;6.10;;;-0.20;99.90;;;;;;5031959;28;20072;-74
2021/01/31 11:12:50;;;;;;;11.20;5.25;;;-0.20;99.90;;;;;;5032125;28;20042;-74
2021/01/31 11:15:16;;;;;;;15.52;6.80;;;-0.20;99.90;;;;;;5014177;28;20030;-74
2021/01/31 11:17:42;;;;;;;14.38;5.78;;;-0.20;99.90;;;;;;5012796;28;20465;-74
2021/01/31 11:20:09;;;;;;;15.07;5.82;;;-0.20;99.90;;;;;;5031776;28;20083;-74
2021/01/31 11:22:35;;;;;;;16.00;6.72;;;-0.20;99.90;;;;;;5031908;28;20033;-75
2021/01/31 11:25:02;;;;;;;11.52;5.97;;;-0.20;99.90;;;;;;5014034;28;20115;-75
2021/01/31 11:27:27;;;;;;;14.05;6.82;;;-0.10;99.90;;;;;;5013155;28;20434;-75
2021/01/31 11:29:53;;;;;;;14.07;6.70;;;-0.10;99.90;;;;;;5023968;28;20105;-74
2021/01/31 11:32:19;;;;;;;12.13;5.95;;;-0.10;99.90;;;;;;5026843;28;20398;-74
2021/01/31 11:34:45;;;;;;;15.02;6.53;;;-0.20;99.90;;;;;;5027339;28;20108;-75
2021/01/31 11:37:11;;;;;;;14.15;6.35;;;-0.10;99.90;;;;;;5029952;28;20440;-75
2021/01/31 11:39:37;;;;;;;14.30;6.47;;;-0.10;99.90;;;;;;5013282;28;20038;-76
2021/01/31 11:42:02;;;;;;;14.90;6.68;;;-0.10;99.90;;;;;;5013767;28;20394;-75
2021/01/31 11:44:28;;;;;;;12.40;5.93;;;0.00;99.90;;;;;;5016206;28;20044;-76
2021/01/31 11:46:54;;;;;;;11.90;5.90;;;0.00;99.90;;;;;;5018718;28;20025;-75
2021/01/31 11:49:20;;;;;;;18.23;7.07;;;0.00;99.90;;;;;;5031211;28;20535;-75
2021/01/31 11:51:45;;;;;;;13.90;6.20;;;0.00;99.90;;;;;;5050592;28;20037;-75
2021/01/31 11:54:11;;;;;;;14.00;6.28;;;0.00;99.90;;;;;;5037638;28;20691;-75
2021/01/31 11:56:37;;;;;;;15.63;6.80;;;0.00;99.90;;;;;;4995770;28;20417;-74
2021/01/31 11:59:03;;;;;;;15.10;6.78;;;0.00;99.90;;;;;;5031324;28;20112;-75
2021/01/31 12:01:29;;;;;;;14.18;6.32;;;0.00;99.90;;;;;;5040625;28;20398;-75
2021/01/31 12:03:55;;;;;;;16.00;6.95;;;0.00;99.90;;;;;;5030829;28;20429;-76
2021/01/31 12:06:21;;;;;;;12.77;6.68;;;0.00;99.90;;;;;;5023331;28;20021;-75
2021/01/31 12:08:47;;;;;;;14.35;6.32;;;-0.10;99.90;;;;;;5013592;28;20904;-75
2021/01/31 12:11:12;;;;;;;14.40;7.07;;;0.00;99.90;;;;;;4990976;28;20118;-75
2021/01/31 12:13:38;;;;;;;12.73;6.55;;;0.00;99.90;;;;;;5002211;28;20061;-78
2021/01/31 12:16:05;;;;;;;14.70;6.55;;;0.00;99.90;;;;;;4999570;28;20640;-77
2021/01/31 12:18:30;;;;;;;12.70;5.97;;;0.00;99.90;;;;;;5016704;28;20126;-76
2021/01/31 12:20:56;;;;;;;14.00;6.85;;;0.00;99.90;;;;;;5035980;28;20069;-77
2021/01/31 12:23:22;;;;;;;15.15;6.15;;;-0.10;99.90;;;;;;5012567;28;20028;-75
2021/01/31 12:25:47;;;;;;;11.93;6.15;;;-0.10;99.90;;;;;;4998535;28;20025;-73
2021/01/31 12:28:16;;;;;;;11.95;5.35;;;0.00;99.90;;;;;;5039472;28;20075;-74
2021/01/31 12:30:42;;;;;;;13.13;6.13;;;0.00;99.90;;;;;;5033408;28;20481;-75
2021/01/31 12:33:09;;;;;;;19.80;7.13;;;0.00;99.90;;;;;;5038667;28;20028;-75
2021/01/31 12:35:35;;;;;;;13.98;5.47;;;0.00;99.90;;;;;;5029635;28;20075;-74
2021/01/31 12:38:01;;;;;;;12.02;5.55;;;0.00;99.90;;;;;;5028458;28;20059;-75
2021/01/31 12:40:29;;;;;;;16.20;5.63;;;0.00;99.90;;;;;;5012357;28;20573;-75
2021/01/31 12:42:55;;;;;;;12.07;5.88;;;0.00;99.90;;;;;;5011147;28;20029;-75
2021/01/31 12:45:22;;;;;;;12.57;6.25;;;0.00;99.90;;;;;;5015578;28;20022;-75
2021/01/31 12:47:48;;;;;;;11.60;5.80;;;0.00;99.90;;;;;;5009143;28;20030;-74
2021/01/31 12:50:16;;;;;;;12.95;6.05;;;0.00;99.90;;;;;;5038111;28;20030;-74
2021/01/31 12:52:42;;;;;;;11.80;6.72;;;0.00;99.90;;;;;;5039680;28;20029;-74
2021/01/31 12:55:11;;;;;;;15.43;6.88;;;0.10;99.90;;;;;;5014790;28;20507;-74
2021/01/31 12:57:37;;;;;;;13.88;6.45;;;0.00;99.90;;;;;;5025607;28;20032;-75
2021/01/31 13:00:05;;;;;;;12.77;5.68;;;0.00;99.90;;;;;;5022941;28;20030;-74
2021/01/31 13:02:31;;;;;;;12.45;5.93;;;0.00;99.90;;;;;;5031288;28;20033;-74
2021/01/31 13:04:57;;;;;;;13.05;6.10;;;0.00;99.90;;;;;;5038623;28;20032;-75
2021/01/31 13:07:22;;;;;;;12.95;6.60;;;-0.10;99.90;;;;;;5008990;28;20106;-74
2021/01/31 13:09:48;;;;;;;14.27;6.72;;;-0.10;99.90;;;;;;5019631;28;20120;-75
2021/01/31 13:12:14;;;;;;;13.55;5.95;;;0.00;99.90;;;;;;5012530;28;20030;-76